F/V Louis Gaetane 2 — FO2401 — position and weather

sailwx.info

Track history (hours):
 
Tides and Currents Weather Stations Pressure Air Temp Water Temp Dewpoint Dewpoint Depression Visibility Wind Speed Wind Dir Waves Ship Positions

F/V Louis Gaetane 2

Last reported at 2018-May-16 04:45 UTC. Time now 2018-May-21 07:20 UTC.
Position N 43°19' E 003°59'.

Length 25 m.

Type: Fishing. MMSI: 227913000.

Date/timePositionNaut miles runAvg speedWind from/ knotsBaromVisibWave heightAir tempDewpointWater temp
2018-May-16 04:45N 43°19' E 003°59'1 4.2
2018-May-16 04:28N 43°19' E 003°57'3 0.2
2018-May-15 07:57N 43°22' E 003°56'2 4.2
2018-May-15 07:30N 43°22' E 003°59'2 4.2
2018-May-15 07:00N 43°22' E 004°02'2 3.4
2018-May-15 06:30N 43°22' E 003°59'2 4.3
2018-May-15 06:00N 43°22' E 003°56'1 0.1
2018-May-14 08:49N 43°23' E 003°58'1 4.1
2018-May-14 08:30N 43°22' E 003°60'3 1.1
2018-May-14 05:26N 43°22' E 004°04'2 4.2
2018-May-14 05:00N 43°22' E 004°02'2 4.2
2018-May-14 04:30N 43°22' E 003°59'2 4.2
2018-May-14 04:00N 43°21' E 003°56'  
Track history (hours):
 
Tides and Currents Weather Stations Pressure Air Temp Water Temp Dewpoint Dewpoint Depression Visibility Wind Speed Wind Dir Waves Ship Positions

F/V Louis Gaetane 2

Last reported at 2018-May-16 04:45 UTC. Time now 2018-May-21 07:20 UTC.
Position N 43°19' E 003°59'.

Length 25 m.

Type: Fishing. MMSI: 227913000.

Date/timePositionNaut miles runAvg speedWind from/ knotsBaromVisibWave heightAir tempDewpointWater temp
2018-May-16 04:45N 43°19' E 003°59'1 4.2
2018-May-16 04:28N 43°19' E 003°57'3 0.2
2018-May-15 07:57N 43°22' E 003°56'2 4.2
2018-May-15 07:30N 43°22' E 003°59'2 4.2
2018-May-15 07:00N 43°22' E 004°02'2 3.4
2018-May-15 06:30N 43°22' E 003°59'2 4.3
2018-May-15 06:00N 43°22' E 003°56'1 0.1
2018-May-14 08:49N 43°23' E 003°58'1 4.1
2018-May-14 08:30N 43°22' E 003°60'3 1.1
2018-May-14 05:26N 43°22' E 004°04'2 4.2
2018-May-14 05:00N 43°22' E 004°02'2 4.2
2018-May-14 04:30N 43°22' E 003°59'2 4.2
2018-May-14 04:00N 43°21' E 003°56'  

Dump ship's entire track history